createdAt,value
2017-12-25T00:01:03.193Z,10.27
2017-12-25T00:02:25.240Z,10.27
2017-12-25T00:03:47.385Z,10.26
2017-12-25T00:05:09.669Z,10.33
2017-12-25T00:06:31.547Z,10.32
2017-12-25T00:07:53.788Z,10.29
2017-12-25T00:09:15.973Z,10.26
2017-12-25T00:10:38.159Z,10.29
2017-12-25T00:12:00.037Z,10.26
2017-12-25T00:13:21.950Z,10.26
2017-12-25T00:14:43.884Z,10.26
2017-12-25T00:16:05.772Z,10.36
2017-12-25T00:17:28.043Z,10.3
2017-12-25T00:18:49.733Z,10.33
2017-12-25T00:20:11.613Z,10.33
2017-12-25T00:21:33.227Z,10.29
2017-12-25T00:22:55.071Z,10.34
2017-12-25T00:24:16.696Z,10.3
2017-12-25T00:25:38.608Z,10.27
2017-12-25T00:27:00.721Z,10.33
2017-12-25T00:28:22.458Z,10.27
2017-12-25T00:29:44.104Z,10.29
2017-12-25T00:31:05.955Z,10.26
2017-12-25T00:32:28.077Z,10.2
2017-12-25T00:33:49.893Z,10.29
2017-12-25T00:35:11.555Z,10.3
2017-12-25T00:36:33.580Z,10.26
2017-12-25T00:37:55.183Z,10.22
2017-12-25T00:39:16.994Z,10.27
2017-12-25T00:40:39.099Z,10.29
2017-12-25T00:42:00.700Z,10.27
2017-12-25T00:43:22.934Z,10.32
2017-12-25T00:44:44.914Z,10.33
2017-12-25T00:46:07.182Z,10.27
2017-12-25T00:47:29.033Z,10.27
2017-12-25T00:48:50.902Z,10.29
2017-12-25T00:50:13.061Z,10.26
2017-12-25T00:51:35.239Z,10.23
2017-12-25T00:52:57.397Z,10.26
2017-12-25T00:54:18.997Z,10.26
2017-12-25T00:55:40.346Z,10.2
2017-12-25T00:57:02.207Z,10.25
2017-12-25T00:58:23.803Z,10.18
2017-12-25T00:59:45.683Z,10.17
2017-12-25T01:01:07.609Z,10.12
2017-12-25T01:02:29.483Z,10.18
2017-12-25T01:03:51.733Z,10.17
2017-12-25T01:05:13.616Z,10.14
2017-12-25T01:06:35.515Z,10.14
2017-12-25T01:07:57.435Z,10.15
2017-12-25T01:09:19.593Z,10.12
2017-12-25T01:10:41.723Z,10.2
2017-12-25T01:12:03.873Z,10.07
2017-12-25T01:13:26.034Z,10.14
2017-12-25T01:14:47.664Z,10.12
2017-12-25T01:16:09.910Z,10.17
2017-12-25T01:17:31.923Z,10.07
2017-12-25T01:18:53.822Z,10.11
2017-12-25T01:20:15.554Z,10.15
2017-12-25T01:21:37.863Z,10.09
2017-12-25T01:23:00.012Z,10.17
2017-12-25T01:24:21.877Z,10.08
2017-12-25T01:25:43.752Z,10.17
2017-12-25T01:27:05.870Z,10.11
2017-12-25T01:28:27.725Z,10.11
2017-12-25T01:29:49.693Z,10.12
2017-12-25T01:31:12.018Z,10.08
2017-12-25T01:32:33.616Z,10.02
2017-12-25T01:33:55.225Z,10.09
2017-12-25T01:35:16.549Z,10.07
2017-12-25T01:36:38.690Z,10.01
2017-12-25T01:38:00.054Z,9.97
2017-12-25T01:39:22.213Z,10.07
2017-12-25T01:40:43.657Z,9.99
2017-12-25T01:42:05.497Z,10.07
2017-12-25T01:43:27.667Z,10.07
2017-12-25T01:44:49.082Z,9.94
2017-12-25T01:46:10.956Z,9.96
2017-12-25T01:47:32.840Z,9.99
2017-12-25T01:48:54.518Z,9.96
2017-12-25T01:50:16.484Z,9.91
2017-12-25T01:51:38.383Z,9.84
2017-12-25T01:53:00.549Z,9.96
2017-12-25T01:54:22.251Z,9.97
2017-12-25T01:55:43.964Z,9.87
2017-12-25T01:57:05.332Z,9.84
2017-12-25T01:58:26.724Z,9.96
2017-12-25T01:59:48.677Z,9.9
2017-12-25T02:01:10.713Z,9.87
2017-12-25T02:02:32.374Z,9.78
2017-12-25T02:03:54.286Z,9.81
2017-12-25T02:05:16.146Z,9.68
2017-12-25T02:06:38.292Z,9.72
2017-12-25T02:07:59.896Z,9.64
2017-12-25T02:09:20.974Z,9.71
2017-12-25T02:10:43.274Z,9.58
2017-12-25T02:12:05.434Z,9.6
2017-12-25T02:13:26.811Z,9.53
2017-12-25T02:14:48.654Z,9.6
2017-12-25T02:16:10.272Z,9.58
2017-12-25T02:17:32.223Z,9.56
2017-12-25T02:18:54.494Z,9.58
2017-12-25T02:20:16.363Z,9.53
2017-12-25T02:21:38.292Z,9.54
2017-12-25T02:23:00.443Z,9.51
2017-12-25T02:24:22.641Z,9.48
2017-12-25T02:25:44.514Z,9.39
2017-12-25T02:27:06.653Z,9.42
2017-12-25T02:28:28.001Z,9.47
2017-12-25T02:29:49.611Z,9.4
2017-12-25T02:31:11.215Z,9.42
2017-12-25T02:32:33.125Z,9.42
2017-12-25T02:33:54.787Z,9.46
2017-12-25T02:35:16.419Z,9.4
2017-12-25T02:36:38.472Z,9.42
2017-12-25T02:38:00.487Z,9.38
2017-12-25T02:39:22.446Z,9.38
2017-12-25T02:40:44.320Z,9.4
2017-12-25T02:42:06.678Z,9.42
2017-12-25T02:43:28.539Z,9.43
2017-12-25T02:44:50.398Z,9.43
2017-12-25T02:46:12.530Z,9.42
2017-12-25T02:47:34.393Z,9.36
2017-12-25T02:48:56.253Z,9.4
2017-12-25T02:50:18.114Z,9.4
2017-12-25T02:51:39.554Z,9.36
2017-12-25T02:53:01.416Z,9.4
2017-12-25T02:54:23.097Z,9.39
2017-12-25T02:55:45.348Z,9.39
2017-12-25T02:57:07.312Z,9.4
2017-12-25T02:58:28.923Z,9.33
2017-12-25T02:59:50.805Z,9.4
2017-12-25T03:01:12.503Z,9.39
2017-12-25T03:02:34.358Z,9.42
2017-12-25T03:03:56.424Z,9.39
2017-12-25T03:05:18.543Z,9.36
2017-12-25T03:06:40.223Z,9.42
2017-12-25T03:08:02.211Z,9.38
2017-12-25T03:09:24.072Z,9.42
2017-12-25T03:10:46.333Z,9.4
2017-12-25T03:12:07.966Z,9.38
2017-12-25T03:13:30.095Z,9.43
2017-12-25T03:14:51.995Z,9.42
2017-12-25T03:16:13.940Z,9.46
2017-12-25T03:17:35.534Z,9.53
2017-12-25T03:18:56.904Z,9.58
2017-12-25T03:20:19.116Z,9.56
2017-12-25T03:21:41.066Z,9.56
2017-12-25T03:23:02.806Z,9.64
2017-12-25T03:24:24.726Z,9.58
2017-12-25T03:25:46.050Z,9.58
2017-12-25T03:27:07.677Z,9.64
2017-12-25T03:28:29.781Z,9.6
2017-12-25T03:29:51.732Z,9.65
2017-12-25T03:31:13.356Z,9.58
2017-12-25T03:32:35.223Z,9.58
2017-12-25T03:33:56.856Z,9.66
2017-12-25T03:35:18.984Z,9.68
2017-12-25T03:36:40.845Z,9.66
2017-12-25T03:38:02.753Z,9.68
2017-12-25T03:39:24.359Z,9.65
2017-12-25T03:40:45.975Z,9.6
2017-12-25T03:42:08.152Z,9.68
2017-12-25T03:43:30.015Z,9.74
2017-12-25T03:44:51.606Z,9.64
2017-12-25T03:46:13.755Z,9.66
2017-12-25T03:47:35.594Z,9.74
2017-12-25T03:48:57.215Z,9.71
2017-12-25T03:50:19.350Z,9.71
2017-12-25T03:51:40.969Z,9.65
2017-12-25T03:53:02.586Z,9.69
2017-12-25T03:54:24.479Z,9.68
2017-12-25T03:55:46.345Z,9.71
2017-12-25T03:57:07.935Z,9.66
2017-12-25T03:58:29.854Z,9.78
2017-12-25T03:59:51.184Z,9.76
2017-12-25T04:01:13.073Z,9.76
2017-12-25T04:02:34.688Z,9.76
2017-12-25T04:03:56.027Z,9.71
2017-12-25T04:05:17.427Z,9.81
2017-12-25T04:06:39.025Z,9.76
2017-12-25T04:08:00.636Z,9.74
2017-12-25T04:09:22.276Z,9.71
2017-12-25T04:10:43.655Z,9.65
2017-12-25T04:12:05.375Z,9.68
2017-12-25T04:13:27.742Z,9.66
2017-12-25T04:14:49.338Z,9.68
2017-12-25T04:16:10.937Z,9.71
2017-12-25T04:17:32.537Z,9.65
2017-12-25T04:18:54.177Z,9.6
2017-12-25T04:20:16.056Z,9.61
2017-12-25T04:21:37.636Z,9.58
2017-12-25T04:22:59.498Z,9.66
2017-12-25T04:24:21.475Z,9.54
2017-12-25T04:25:43.411Z,9.61
2017-12-25T04:27:04.732Z,9.58
2017-12-25T04:28:26.848Z,9.6
2017-12-25T04:29:47.926Z,9.6
2017-12-25T04:31:09.254Z,9.57
2017-12-25T04:32:31.327Z,9.58
2017-12-25T04:33:53.454Z,9.61
2017-12-25T04:35:15.824Z,9.57
2017-12-25T04:36:37.694Z,9.5
2017-12-25T04:37:59.567Z,9.54
2017-12-25T04:39:21.694Z,9.51
2017-12-25T04:40:43.824Z,9.5
2017-12-25T04:42:05.686Z,9.47
2017-12-25T04:43:27.631Z,9.48
2017-12-25T04:44:48.977Z,9.48
2017-12-25T04:46:11.186Z,9.4
2017-12-25T04:47:32.784Z,9.47
2017-12-25T04:48:54.185Z,9.39
2017-12-25T04:50:16.100Z,9.43
2017-12-25T04:51:38.255Z,9.48
2017-12-25T04:53:00.120Z,9.42
2017-12-25T04:54:21.862Z,9.39
2017-12-25T04:55:43.595Z,9.43
2017-12-25T04:57:05.224Z,9.5
2017-12-25T04:58:26.844Z,9.43
2017-12-25T04:59:48.967Z,9.47
2017-12-25T05:01:10.924Z,9.47
2017-12-25T05:02:32.523Z,9.43
2017-12-25T05:03:54.383Z,9.42
2017-12-25T05:05:16.278Z,9.43
2017-12-25T05:06:37.432Z,9.42
2017-12-25T05:07:59.051Z,9.43
2017-12-25T05:09:20.665Z,9.46
2017-12-25T05:10:42.030Z,9.42
2017-12-25T05:12:03.938Z,9.43
2017-12-25T05:13:25.836Z,9.46
2017-12-25T05:14:47.515Z,9.47
2017-12-25T05:16:09.778Z,9.4
2017-12-25T05:17:31.926Z,9.4
2017-12-25T05:18:53.802Z,9.39
2017-12-25T05:20:15.562Z,9.4
2017-12-25T05:21:37.682Z,9.51
2017-12-25T05:22:59.578Z,9.36
2017-12-25T05:24:20.937Z,9.36
2017-12-25T05:25:42.858Z,9.36
2017-12-25T05:27:04.201Z,9.39
2017-12-25T05:28:25.567Z,9.36
2017-12-25T05:29:47.474Z,9.31
2017-12-25T05:31:09.539Z,9.32
2017-12-25T05:32:31.432Z,9.31
2017-12-25T05:33:52.816Z,9.29
2017-12-25T05:35:14.824Z,9.31
2017-12-25T05:36:36.950Z,9.26
2017-12-25T05:37:58.024Z,9.28
2017-12-25T05:39:20.144Z,9.32
2017-12-25T05:40:42.137Z,9.31
2017-12-25T05:42:03.995Z,9.29
2017-12-25T05:43:25.595Z,9.28
2017-12-25T05:44:47.603Z,9.23
2017-12-25T05:46:09.696Z,9.32
2017-12-25T05:47:31.036Z,9.32
2017-12-25T05:48:52.662Z,9.28
2017-12-25T05:50:14.782Z,9.38
2017-12-25T05:51:37.116Z,9.32
2017-12-25T05:52:58.419Z,9.28
2017-12-25T05:54:20.059Z,9.31
2017-12-25T05:55:41.934Z,9.35
2017-12-25T05:57:03.590Z,9.32
2017-12-25T05:58:25.199Z,9.35
2017-12-25T05:59:47.055Z,9.39
2017-12-25T06:01:08.386Z,9.38
2017-12-25T06:02:30.010Z,9.39
2017-12-25T06:03:52.002Z,9.42
2017-12-25T06:05:13.103Z,9.36
2017-12-25T06:06:34.824Z,9.38
2017-12-25T06:07:56.534Z,9.4
2017-12-25T06:09:17.865Z,9.39
2017-12-25T06:10:39.992Z,9.39
2017-12-25T06:12:01.849Z,9.32
2017-12-25T06:13:23.475Z,9.4
2017-12-25T06:14:45.089Z,9.4
2017-12-25T06:16:06.819Z,9.38
2017-12-25T06:17:28.215Z,9.42
2017-12-25T06:18:49.869Z,9.42
2017-12-25T06:20:11.471Z,9.35
2017-12-25T06:21:33.069Z,9.4
2017-12-25T06:22:55.057Z,9.4
2017-12-25T06:24:16.683Z,9.38
2017-12-25T06:25:38.439Z,9.4
2017-12-25T06:27:00.115Z,9.47
2017-12-25T06:28:22.040Z,9.42
2017-12-25T06:29:43.896Z,9.4
2017-12-25T06:31:05.607Z,9.4
2017-12-25T06:32:26.982Z,9.43
2017-12-25T06:33:48.681Z,9.43
2017-12-25T06:35:10.402Z,9.46
2017-12-25T06:36:31.843Z,9.46
2017-12-25T06:37:53.566Z,9.47
2017-12-25T06:39:15.412Z,9.48
2017-12-25T06:40:36.764Z,9.4
2017-12-25T06:41:58.676Z,9.39
2017-12-25T06:43:20.551Z,9.42
2017-12-25T06:44:42.165Z,9.42
2017-12-25T06:46:04.053Z,9.48
2017-12-25T06:47:25.407Z,9.39
2017-12-25T06:48:47.015Z,9.38
2017-12-25T06:50:08.889Z,9.38
2017-12-25T06:51:30.759Z,9.46
2017-12-25T06:52:52.656Z,9.53
2017-12-25T06:54:14.246Z,9.47
2017-12-25T06:55:35.856Z,9.46
2017-12-25T06:56:57.966Z,9.46
2017-12-25T06:58:19.994Z,9.5
2017-12-25T06:59:41.897Z,9.51
2017-12-25T07:01:03.250Z,9.58
2017-12-25T07:02:24.852Z,9.58
2017-12-25T07:03:46.731Z,9.64
2017-12-25T07:05:08.467Z,9.58
2017-12-25T07:06:29.844Z,9.64
2017-12-25T07:07:52.092Z,9.61
2017-12-25T07:09:13.861Z,9.58
2017-12-25T07:10:35.745Z,9.6
2017-12-25T07:11:57.616Z,9.65
2017-12-25T07:13:18.709Z,9.65
2017-12-25T07:14:40.400Z,9.66
2017-12-25T07:16:02.012Z,9.65
2017-12-25T07:17:23.977Z,9.72
2017-12-25T07:18:45.863Z,9.71
2017-12-25T07:20:07.824Z,9.71
2017-12-25T07:21:29.194Z,9.66
2017-12-25T07:22:50.937Z,9.74
2017-12-25T07:24:13.644Z,9.66
2017-12-25T07:25:35.283Z,9.69
2017-12-25T07:26:56.623Z,9.81
2017-12-25T07:28:18.254Z,9.72
2017-12-25T07:29:40.155Z,9.83
2017-12-25T07:31:01.943Z,9.72
2017-12-25T07:32:23.606Z,9.78
2017-12-25T07:33:45.214Z,9.71
2017-12-25T07:35:06.808Z,9.76
2017-12-25T07:36:27.898Z,9.79
2017-12-25T07:37:49.830Z,9.79
2017-12-25T07:39:11.324Z,9.79
2017-12-25T07:40:33.037Z,9.89
2017-12-25T07:41:54.887Z,9.87
2017-12-25T07:43:16.511Z,9.9
2017-12-25T07:44:38.180Z,9.84
2017-12-25T07:46:00.066Z,9.89
2017-12-25T07:47:22.224Z,9.87
2017-12-25T07:48:43.665Z,9.89
2017-12-25T07:50:05.936Z,9.9
2017-12-25T07:51:27.822Z,9.89
2017-12-25T07:52:49.516Z,9.9
2017-12-25T07:54:11.465Z,9.91
2017-12-25T07:55:33.058Z,9.9
2017-12-25T07:56:55.148Z,9.89
2017-12-25T07:58:16.764Z,9.9
2017-12-25T07:59:38.364Z,9.81
2017-12-25T08:01:00.154Z,9.9
2017-12-25T08:02:22.024Z,9.84
2017-12-25T08:03:44.163Z,9.83
2017-12-25T08:05:06.363Z,9.87
2017-12-25T08:06:27.712Z,9.87
2017-12-25T08:07:49.325Z,9.99
2017-12-25T08:09:10.943Z,9.99
2017-12-25T08:10:32.822Z,9.97
2017-12-25T08:11:54.152Z,9.94
2017-12-25T08:13:16.025Z,9.96
2017-12-25T08:14:38.241Z,9.93
2017-12-25T08:15:59.601Z,9.91
2017-12-25T08:17:21.224Z,10.02
2017-12-25T08:18:43.474Z,9.93
2017-12-25T08:20:05.099Z,9.97
2017-12-25T08:21:26.784Z,10.04
2017-12-25T08:22:48.914Z,10.05
2017-12-25T08:24:11.048Z,10.01
2017-12-25T08:25:33.213Z,10.01
2017-12-25T08:26:55.103Z,9.97
2017-12-25T08:28:16.460Z,10.09
2017-12-25T08:29:38.447Z,9.99
2017-12-25T08:31:00.673Z,10.12
2017-12-25T08:32:22.831Z,9.99
2017-12-25T08:33:44.223Z,9.96
2017-12-25T08:35:05.834Z,10.01
2017-12-25T08:36:27.703Z,9.96
2017-12-25T08:37:49.404Z,9.96
2017-12-25T08:39:11.274Z,10.01
2017-12-25T08:40:33.523Z,10.02
2017-12-25T08:41:55.144Z,10.05
2017-12-25T08:43:17.213Z,9.97
2017-12-25T08:44:39.348Z,10.01
2017-12-25T08:46:01.497Z,9.93
2017-12-25T08:47:23.358Z,9.97
2017-12-25T08:48:45.233Z,9.89
2017-12-25T08:50:06.588Z,9.99
2017-12-25T08:51:27.964Z,10.02
2017-12-25T08:52:50.089Z,10.02
2017-12-25T08:54:11.741Z,9.96
2017-12-25T08:55:33.714Z,10.01
2017-12-25T08:56:55.585Z,10.02
2017-12-25T08:58:17.215Z,9.96
2017-12-25T08:59:39.084Z,10.04
2017-12-25T09:01:00.509Z,9.96
2017-12-25T09:02:22.751Z,9.99
2017-12-25T09:03:44.915Z,10.01
2017-12-25T09:05:06.825Z,9.99
2017-12-25T09:06:28.986Z,10.02
2017-12-25T09:07:50.892Z,9.99
2017-12-25T09:09:12.773Z,9.97
2017-12-25T09:10:34.658Z,9.96
2017-12-25T09:11:56.804Z,9.93
2017-12-25T09:13:18.706Z,9.94
2017-12-25T09:14:40.851Z,9.96
2017-12-25T09:16:03.184Z,9.91
2017-12-25T09:17:24.805Z,9.89
2017-12-25T09:18:46.983Z,9.89
2017-12-25T09:20:08.601Z,9.84
2017-12-25T09:21:30.050Z,9.86
2017-12-25T09:22:51.665Z,9.86
2017-12-25T09:24:13.864Z,9.94
2017-12-25T09:25:36.026Z,9.89
2017-12-25T09:26:58.185Z,9.84
2017-12-25T09:28:20.083Z,9.89
2017-12-25T09:29:41.960Z,9.86
2017-12-25T09:31:03.585Z,9.9
2017-12-25T09:32:25.368Z,9.87
2017-12-25T09:33:47.566Z,9.97
2017-12-25T09:35:09.494Z,9.96
2017-12-25T09:36:31.724Z,10.04
2017-12-25T09:37:53.575Z,10.04
2017-12-25T09:39:15.715Z,9.94
2017-12-25T09:40:37.940Z,10.09
2017-12-25T09:42:00.123Z,10.14
2017-12-25T09:43:21.770Z,10.15
2017-12-25T09:44:43.667Z,10.14
2017-12-25T09:46:05.603Z,10.15
2017-12-25T09:47:27.298Z,10.2
2017-12-25T09:48:49.203Z,10.23
2017-12-25T09:50:10.893Z,10.17
2017-12-25T09:51:31.983Z,10.14
2017-12-25T09:52:53.845Z,10.17
2017-12-25T09:54:16.088Z,10.17
2017-12-25T09:55:38.240Z,10.17
2017-12-25T09:57:00.114Z,10.25
2017-12-25T09:58:22.246Z,10.29
2017-12-25T09:59:44.194Z,10.3
2017-12-25T10:01:06.334Z,10.27
2017-12-25T10:02:28.233Z,10.38
2017-12-25T10:03:50.458Z,10.34
2017-12-25T10:05:12.655Z,10.33
2017-12-25T10:06:34.327Z,10.34
2017-12-25T10:07:56.481Z,10.4
2017-12-25T10:09:18.459Z,10.38
2017-12-25T10:10:40.349Z,10.38
2017-12-25T10:12:02.554Z,10.29
2017-12-25T10:13:24.693Z,10.36
2017-12-25T10:14:46.885Z,10.3
2017-12-25T10:16:08.831Z,10.34
2017-12-25T10:17:31.100Z,10.36
2017-12-25T10:18:53.422Z,10.4
2017-12-25T10:20:15.657Z,10.4
2017-12-25T10:21:37.552Z,10.48
2017-12-25T10:22:59.497Z,10.52
2017-12-25T10:24:21.403Z,10.61
2017-12-25T10:25:43.032Z,10.66
2017-12-25T10:27:04.899Z,10.61
2017-12-25T10:28:27.047Z,10.67
2017-12-25T10:29:49.225Z,10.56
2017-12-25T10:31:10.871Z,10.67
2017-12-25T10:32:32.614Z,10.78
2017-12-25T10:33:54.685Z,10.73
2017-12-25T10:35:16.568Z,10.68
2017-12-25T10:36:38.954Z,10.68
2017-12-25T10:38:00.852Z,10.78
2017-12-25T10:39:23.125Z,10.85
2017-12-25T10:40:45.040Z,10.82
2017-12-25T10:42:07.056Z,10.88
2017-12-25T10:43:28.973Z,10.82
2017-12-25T10:44:50.578Z,10.81
2017-12-25T10:46:13.101Z,10.89
2017-12-25T10:47:34.767Z,10.73
2017-12-25T10:48:57.053Z,10.73
2017-12-25T10:50:18.735Z,10.73
2017-12-25T10:51:40.963Z,10.76
2017-12-25T10:53:03.128Z,10.81
2017-12-25T10:54:25.036Z,10.89
2017-12-25T10:55:47.391Z,10.91
2017-12-25T10:57:09.563Z,10.84
2017-12-25T10:58:31.707Z,10.89
2017-12-25T10:59:53.722Z,10.89
2017-12-25T11:01:15.630Z,10.84
2017-12-25T11:02:37.670Z,10.88
2017-12-25T11:03:59.343Z,10.85
2017-12-25T11:05:21.618Z,10.86
2017-12-25T11:06:43.926Z,10.81
2017-12-25T11:08:05.644Z,10.82
2017-12-25T11:09:27.844Z,10.82
2017-12-25T11:10:49.773Z,10.78
2017-12-25T11:12:11.184Z,10.86
2017-12-25T11:13:33.529Z,10.79
2017-12-25T11:14:55.427Z,10.85
2017-12-25T11:16:17.325Z,10.86
2017-12-25T11:17:38.980Z,10.84
2017-12-25T11:19:00.851Z,10.76
2017-12-25T11:20:23.023Z,10.71
2017-12-25T11:21:44.523Z,10.7
2017-12-25T11:23:06.410Z,10.85
2017-12-25T11:24:28.024Z,10.76
2017-12-25T11:25:49.925Z,10.73
2017-12-25T11:27:11.871Z,10.64
2017-12-25T11:28:33.768Z,10.61
2017-12-25T11:29:54.875Z,10.61
2017-12-25T11:31:16.531Z,10.67
2017-12-25T11:32:38.417Z,10.67
2017-12-25T11:34:00.378Z,10.67
2017-12-25T11:35:22.808Z,10.64
2017-12-25T11:36:44.715Z,10.66
2017-12-25T11:38:06.946Z,10.56
2017-12-25T11:39:28.832Z,10.63
2017-12-25T11:40:50.525Z,10.71
2017-12-25T11:42:12.435Z,10.63
2017-12-25T11:43:34.083Z,10.68
2017-12-25T11:44:56.174Z,10.61
2017-12-25T11:46:17.602Z,10.55
2017-12-25T11:47:39.477Z,10.45
2017-12-25T11:49:01.282Z,10.56
2017-12-25T11:50:22.929Z,10.53
2017-12-25T11:51:45.081Z,10.4
2017-12-25T11:53:06.969Z,10.44
2017-12-25T11:54:28.582Z,10.45
2017-12-25T11:55:50.834Z,10.41
2017-12-25T11:57:12.739Z,10.38
2017-12-25T11:58:34.618Z,10.33
2017-12-25T11:59:56.772Z,10.41
2017-12-25T12:01:18.692Z,10.45
2017-12-25T12:02:40.064Z,10.44
2017-12-25T12:04:01.949Z,10.42
2017-12-25T12:05:23.814Z,10.41
2017-12-25T12:06:45.755Z,10.42
2017-12-25T12:08:08.165Z,10.4
2017-12-25T12:09:30.334Z,10.38
2017-12-25T12:10:51.945Z,10.42
2017-12-25T12:12:13.800Z,10.47
2017-12-25T12:13:35.689Z,10.42
2017-12-25T12:14:57.297Z,10.34
2017-12-25T12:16:18.926Z,10.3
2017-12-25T12:17:40.797Z,10.33
2017-12-25T12:19:02.809Z,10.38
2017-12-25T12:20:23.682Z,10.27
2017-12-25T12:21:45.369Z,10.42
2017-12-25T12:23:06.469Z,10.36
2017-12-25T12:24:28.091Z,10.45
2017-12-25T12:25:49.821Z,10.38
2017-12-25T12:27:11.699Z,10.38
2017-12-25T12:28:33.610Z,10.4
2017-12-25T12:29:54.692Z,10.41
2017-12-25T12:31:16.576Z,10.33
2017-12-25T12:32:38.448Z,10.18
2017-12-25T12:33:59.792Z,10.4
2017-12-25T12:35:22.038Z,10.3
2017-12-25T12:36:43.656Z,10.3
2017-12-25T12:38:05.554Z,10.38
2017-12-25T12:39:27.805Z,10.44
2017-12-25T12:40:49.478Z,10.44
2017-12-25T12:42:10.843Z,10.45
2017-12-25T12:43:32.263Z,10.47
2017-12-25T12:44:53.873Z,10.44
2017-12-25T12:46:15.501Z,10.42
2017-12-25T12:47:37.351Z,10.44
2017-12-25T12:48:59.480Z,10.47
2017-12-25T12:50:21.658Z,10.36
2017-12-25T12:51:58.199Z,10.34
2017-12-25T12:53:20.443Z,10.38
2017-12-25T12:54:41.534Z,10.27
2017-12-25T12:56:02.407Z,10.41
2017-12-25T12:57:24.274Z,10.38
2017-12-25T12:58:45.655Z,10.3
2017-12-25T13:00:07.273Z,10.4
2017-12-25T13:01:28.766Z,10.34
2017-12-25T13:02:50.934Z,10.34
2017-12-25T13:04:13.133Z,10.45
2017-12-25T13:05:34.645Z,10.4
2017-12-25T13:06:56.255Z,10.41
2017-12-25T13:08:18.155Z,10.41
2017-12-25T13:09:40.028Z,10.42
2017-12-25T13:11:02.180Z,10.45
2017-12-25T13:12:23.815Z,10.42
2017-12-25T13:13:45.264Z,10.44
2017-12-25T13:15:07.188Z,10.33
2017-12-25T13:16:28.526Z,10.4
2017-12-25T13:17:50.443Z,10.4
2017-12-25T13:19:11.804Z,10.44
2017-12-25T13:20:33.168Z,10.41
2017-12-25T13:21:55.372Z,10.44
2017-12-25T13:23:17.051Z,10.44
2017-12-25T13:24:38.415Z,10.44
2017-12-25T13:25:59.523Z,10.41
2017-12-25T13:27:21.438Z,10.44
2017-12-25T13:28:43.052Z,10.44
2017-12-25T13:30:04.670Z,10.4
2017-12-25T13:31:26.031Z,10.48
2017-12-25T13:32:47.673Z,10.45
2017-12-25T13:34:09.705Z,10.44
2017-12-25T13:35:31.376Z,10.3
2017-12-25T13:36:53.289Z,10.33
2017-12-25T13:38:15.173Z,10.33
2017-12-25T13:39:37.173Z,10.4
2017-12-25T13:40:58.802Z,10.44
2017-12-25T13:42:20.712Z,10.38
2017-12-25T13:43:43.094Z,10.33
2017-12-25T13:45:04.434Z,10.3
2017-12-25T13:46:26.142Z,10.32
2017-12-25T13:47:48.125Z,10.4
2017-12-25T13:49:10.288Z,10.3
2017-12-25T13:50:32.126Z,10.38
2017-12-25T13:51:53.725Z,10.36
2017-12-25T13:53:15.074Z,10.25
2017-12-25T13:54:37.014Z,10.34
2017-12-25T13:55:58.667Z,10.29
2017-12-25T13:57:20.568Z,10.3
2017-12-25T13:58:41.941Z,10.38
2017-12-25T14:00:03.294Z,10.36
2017-12-25T14:01:25.103Z,10.32
2017-12-25T14:02:46.726Z,10.27
2017-12-25T14:04:08.882Z,10.3
2017-12-25T14:05:30.235Z,10.32
2017-12-25T14:06:51.604Z,10.3
2017-12-25T14:08:13.675Z,10.29
2017-12-25T14:09:35.585Z,10.29
2017-12-25T14:10:57.353Z,10.23
2017-12-25T14:12:18.740Z,10.26
2017-12-25T14:13:41.073Z,10.26
2017-12-25T14:15:03.348Z,10.2
2017-12-25T14:16:24.706Z,10.15
2017-12-25T14:17:46.908Z,10.2
2017-12-25T14:19:08.522Z,10.15
2017-12-25T14:20:30.403Z,10.23
2017-12-25T14:21:52.315Z,10.17
2017-12-25T14:23:13.504Z,10.14
2017-12-25T14:24:35.397Z,10.15
2017-12-25T14:25:57.054Z,10.15
2017-12-25T14:27:18.505Z,10.15
2017-12-25T14:28:40.476Z,10.11
2017-12-25T14:30:02.845Z,10.12
2017-12-25T14:31:25.092Z,10.12
2017-12-25T14:32:46.741Z,10.18
2017-12-25T14:34:08.885Z,10.2
2017-12-25T14:35:31.060Z,10.08
2017-12-25T14:36:52.959Z,10.08
2017-12-25T14:38:14.886Z,10.12
2017-12-25T14:39:36.770Z,10.12
2017-12-25T14:40:58.687Z,10.14
2017-12-25T14:42:20.570Z,10.01
2017-12-25T14:43:41.939Z,10.02
2017-12-25T14:45:03.808Z,9.93
2017-12-25T14:46:25.716Z,9.93
2017-12-25T14:47:47.143Z,9.86
2017-12-25T14:49:08.762Z,9.87
2017-12-25T14:50:30.386Z,9.91
2017-12-25T14:51:52.294Z,9.89
2017-12-25T14:53:14.187Z,9.84
2017-12-25T14:54:36.096Z,9.79
2017-12-25T14:55:58.576Z,9.86
2017-12-25T14:57:20.561Z,9.81
2017-12-25T14:58:42.178Z,9.86
2017-12-25T15:00:03.824Z,9.78
2017-12-25T15:01:25.585Z,9.76
2017-12-25T15:02:47.858Z,9.81
2017-12-25T15:04:10.102Z,9.83
2017-12-25T15:05:31.976Z,9.76
2017-12-25T15:06:54.335Z,9.71
2017-12-25T15:08:16.479Z,9.64
2017-12-25T15:09:38.368Z,9.69
2017-12-25T15:11:00.576Z,9.71
2017-12-25T15:12:22.547Z,9.66
2017-12-25T15:13:45.024Z,9.74
2017-12-25T15:15:06.945Z,9.57
2017-12-25T15:16:29.075Z,9.57
2017-12-25T15:17:51.295Z,9.61
2017-12-25T15:19:13.749Z,9.58
2017-12-25T15:20:35.666Z,9.58
2017-12-25T15:21:57.568Z,9.58
2017-12-25T15:23:19.179Z,9.53
2017-12-25T15:24:41.038Z,9.64
2017-12-25T15:26:03.233Z,9.61
2017-12-25T15:27:24.855Z,9.6
2017-12-25T15:28:46.464Z,9.6
2017-12-25T15:30:08.320Z,9.61
2017-12-25T15:31:29.956Z,9.57
2017-12-25T15:32:52.134Z,9.64
2017-12-25T15:34:14.289Z,9.54
2017-12-25T15:35:36.230Z,9.58
2017-12-25T15:36:58.283Z,9.6
2017-12-25T15:38:20.436Z,9.61
2017-12-25T15:39:42.315Z,9.58
2017-12-25T15:41:03.963Z,9.61
2017-12-25T15:42:25.854Z,9.54
2017-12-25T15:43:48.133Z,9.61
2017-12-25T15:45:10.281Z,9.5
2017-12-25T15:46:32.518Z,9.57
2017-12-25T15:47:54.405Z,9.61
2017-12-25T15:49:16.698Z,9.61
2017-12-25T15:50:38.595Z,9.6
2017-12-25T15:52:00.455Z,9.54
2017-12-25T15:53:22.365Z,9.5
2017-12-25T15:54:44.248Z,9.5
2017-12-25T15:56:06.437Z,9.47
2017-12-25T15:57:28.307Z,9.42
2017-12-25T15:58:50.479Z,9.43
2017-12-25T16:00:12.636Z,9.42
2017-12-25T16:01:34.772Z,9.38
2017-12-25T16:02:56.816Z,9.32
2017-12-25T16:04:18.957Z,9.29
2017-12-25T16:05:41.096Z,9.26
2017-12-25T16:07:03.016Z,9.24
2017-12-25T16:08:24.894Z,9.24
2017-12-25T16:09:47.134Z,9.32
2017-12-25T16:11:09.123Z,9.24
2017-12-25T16:12:31.037Z,9.23
2017-12-25T16:13:53.201Z,9.31
2017-12-25T16:15:15.347Z,9.31
2017-12-25T16:16:37.685Z,9.32
2017-12-25T16:17:59.559Z,9.29
2017-12-25T16:19:21.858Z,9.31
2017-12-25T16:20:43.208Z,9.32
2017-12-25T16:22:04.876Z,9.31
2017-12-25T16:23:26.763Z,9.31
2017-12-25T16:24:49.035Z,9.32
2017-12-25T16:26:11.006Z,9.23
2017-12-25T16:27:32.986Z,9.35
2017-12-25T16:28:54.967Z,9.29
2017-12-25T16:30:16.864Z,9.26
2017-12-25T16:31:39.016Z,9.35
2017-12-25T16:33:00.964Z,9.32
2017-12-25T16:34:22.854Z,9.32
2017-12-25T16:35:44.873Z,9.28
2017-12-25T16:37:06.504Z,9.29
2017-12-25T16:38:28.370Z,9.31
2017-12-25T16:39:50.245Z,9.32
2017-12-25T16:41:12.477Z,9.32
2017-12-25T16:42:34.369Z,9.29
2017-12-25T16:43:56.506Z,9.31
2017-12-25T16:45:18.415Z,9.29
2017-12-25T16:46:40.588Z,9.28
2017-12-25T16:48:02.497Z,9.15
2017-12-25T16:49:24.383Z,9.26
2017-12-25T16:50:46.543Z,9.33
2017-12-25T16:52:08.436Z,9.21
2017-12-25T16:53:30.632Z,9.18
2017-12-25T16:54:52.316Z,9.26
2017-12-25T16:56:13.945Z,9.24
2017-12-25T16:57:36.136Z,9.26
2017-12-25T16:58:58.073Z,9.23
2017-12-25T17:00:19.755Z,9.24
2017-12-25T17:01:41.915Z,9.24
2017-12-25T17:03:03.559Z,9.21
2017-12-25T17:04:25.710Z,9.18
2017-12-25T17:05:47.956Z,9.15
2017-12-25T17:07:10.333Z,9.1
2017-12-25T17:08:32.692Z,9.13
2017-12-25T17:09:54.590Z,9.14
2017-12-25T17:11:16.606Z,9.17
2017-12-25T17:12:38.306Z,9.13
2017-12-25T17:14:00.570Z,9.14
2017-12-25T17:15:22.720Z,9.14
2017-12-25T17:16:44.582Z,9.08
2017-12-25T17:18:06.713Z,9.08
2017-12-25T17:19:28.613Z,9.1
2017-12-25T17:20:50.496Z,9.02
2017-12-25T17:22:12.107Z,9.1
2017-12-25T17:23:34.443Z,9.02
2017-12-25T17:24:56.323Z,9.13
2017-12-25T17:26:18.054Z,9.08
2017-12-25T17:27:39.973Z,9.04
2017-12-25T17:29:01.601Z,9.05
2017-12-25T17:30:23.520Z,9.02
2017-12-25T17:31:45.674Z,9.01
2017-12-25T17:33:07.837Z,8.99
2017-12-25T17:34:29.983Z,8.94
2017-12-25T17:35:51.934Z,8.95
2017-12-25T17:37:13.279Z,8.92
2017-12-25T17:38:35.145Z,8.98
2017-12-25T17:39:57.043Z,8.96
2017-12-25T17:41:18.925Z,8.98
2017-12-25T17:42:40.916Z,8.87
2017-12-25T17:44:02.807Z,8.86
2017-12-25T17:45:24.261Z,8.96
2017-12-25T17:46:46.175Z,8.86
2017-12-25T17:48:08.360Z,8.96
2017-12-25T17:49:30.247Z,8.96
2017-12-25T17:50:52.503Z,8.98
2017-12-25T17:52:15.002Z,8.96
2017-12-25T17:53:36.869Z,8.94
2017-12-25T17:54:58.545Z,8.95
2017-12-25T17:56:19.919Z,8.99
2017-12-25T17:57:41.824Z,8.95
2017-12-25T17:59:04.363Z,8.96